Time;durP1;ratioP1;P1;durP2;ratioP2;P2;SDS_P1;SDS_P2;PMS_P1;PMS_P2;Temp;Humidity;BMP_temperature;BMP_pressure;BME280_temperature;BME280_humidity;BME280_pressure;Samples;Min_cycle;Max_cycle;Signal;HPM_P1;HPM_P2
2023/09/12 00:01:10;;;;;;;9.75;5.78;;;;;;;20.01;100.00;96983.06;5060972;28;20417;-77
2023/09/12 00:03:36;;;;;;;10.93;5.93;;;;;;;19.98;100.00;96981.03;5060492;28;20450;-77
2023/09/12 00:06:04;;;;;;;7.90;5.82;;;;;;;19.96;100.00;96977.88;5062126;28;20496;-77
2023/09/12 00:08:30;;;;;;;11.88;7.30;;;;;;;19.93;100.00;96980.41;5061175;28;20401;-77
2023/09/12 00:11:02;;;;;;;13.73;6.93;;;;;;;19.89;100.00;96976.78;5056079;28;20413;-77
2023/09/12 00:13:29;;;;;;;11.88;7.03;;;;;;;19.85;100.00;96970.47;5059459;28;20424;-77
2023/09/12 00:15:55;;;;;;;9.88;6.00;;;;;;;19.82;100.00;96971.13;5049023;28;20407;-77
2023/09/12 00:18:22;;;;;;;12.50;6.60;;;;;;;19.79;100.00;96964.47;5064325;28;20397;-77
2023/09/12 00:20:48;;;;;;;10.27;6.00;;;;;;;19.76;100.00;96969.72;5065408;28;20413;-77
2023/09/12 00:23:14;;;;;;;13.43;6.47;;;;;;;19.72;100.00;96961.50;5065717;28;20497;-77
2023/09/12 00:25:40;;;;;;;8.73;6.50;;;;;;;19.65;100.00;96959.31;5065295;28;20475;-77
2023/09/12 00:28:08;;;;;;;8.88;5.65;;;;;;;19.65;100.00;96955.84;5064998;28;20398;-77
2023/09/12 00:30:34;;;;;;;10.95;6.57;;;;;;;19.65;100.00;96955.84;5063716;28;20434;-77
2023/09/12 00:33:00;;;;;;;10.15;5.78;;;;;;;19.66;100.00;96950.16;5063664;28;20417;-77
2023/09/12 00:35:26;;;;;;;13.52;6.65;;;;;;;19.65;100.00;96959.31;5060684;28;20409;-77
2023/09/12 00:37:52;;;;;;;14.47;7.30;;;;;;;19.63;100.00;96950.00;5059819;28;20413;-77
2023/09/12 00:40:19;;;;;;;8.43;5.95;;;;;;;19.61;100.00;96954.91;5061667;28;20413;-77
2023/09/12 00:42:45;;;;;;;14.40;6.63;;;;;;;19.59;100.00;96960.59;5053735;28;20426;-77
2023/09/12 00:45:12;;;;;;;8.27;5.72;;;;;;;19.57;100.00;96965.50;5056987;28;20453;-77
2023/09/12 00:47:39;;;;;;;10.02;6.22;;;;;;;19.54;100.00;96970.72;5059769;28;20401;-77
2023/09/12 00:50:06;;;;;;;10.48;6.45;;;;;;;19.49;100.00;96962.81;5063636;28;20389;-77
2023/09/12 00:52:34;;;;;;;8.68;6.00;;;;;;;19.47;100.00;96965.06;5062569;28;20409;-76
2023/09/12 00:55:01;;;;;;;12.38;7.00;;;;;;;19.43;100.00;96959.47;5061383;28;20409;-76
2023/09/12 00:57:28;;;;;;;11.27;6.03;;;;;;;19.42;100.00;96957.13;5061581;28;20532;-76
2023/09/12 00:59:55;;;;;;;10.67;6.03;;;;;;;19.40;100.00;96960.09;5061696;28;20424;-77
2023/09/12 01:02:23;;;;;;;10.43;5.80;;;;;;;19.38;100.00;96953.50;5062005;28;20459;-77
2023/09/12 01:04:50;;;;;;;11.75;6.00;;;;;;;19.34;100.00;96956.81;5062078;28;20401;-77
2023/09/12 01:07:17;;;;;;;7.78;5.68;;;;;;;19.31;100.00;96944.03;5043535;28;20409;-76
2023/09/12 01:09:43;;;;;;;9.77;5.70;;;;;;;19.30;100.00;96952.41;5043616;28;20401;-76
2023/09/12 01:12:14;;;;;;;10.07;5.63;;;;;;;19.27;100.00;96944.97;5061191;28;20994;-76
2023/09/12 01:14:40;;;;;;;7.85;5.10;;;;;;;19.27;100.00;96944.97;5060897;28;20416;-76
2023/09/12 01:17:07;;;;;;;8.85;6.00;;;;;;;19.22;100.00;96942.47;5054575;28;20397;-77
2023/09/12 01:19:34;;;;;;;8.00;5.60;;;;;;;19.20;100.00;96941.97;5052800;28;20459;-77
2023/09/12 01:22:40;;;;;;;7.38;5.03;;;;;;;19.17;100.00;96942.63;5060339;28;20444;-76
2023/09/12 01:25:34;;;;;;;9.05;5.60;;;;;;;19.16;100.00;96947.22;4963265;28;20917;-77
2023/09/12 01:28:04;;;;;;;8.35;5.25;;;;;;;19.15;100.00;96947.50;4979972;28;20482;-76
2023/09/12 01:30:32;;;;;;;7.00;4.63;;;;;;;19.11;100.00;96949.25;5028988;28;20458;-77
2023/09/12 01:32:59;;;;;;;8.18;5.70;;;;;;;19.10;100.00;96944.97;5061084;28;20436;-77
2023/09/12 01:35:25;;;;;;;8.02;5.47;;;;;;;19.09;100.00;96959.53;5062280;28;20496;-77
2023/09/12 01:37:51;;;;;;;7.40;5.57;;;;;;;19.05;100.00;96953.97;5061254;28;20487;-76
2023/09/12 01:40:19;;;;;;;8.82;5.20;;;;;;;19.03;100.00;96947.34;5061617;28;20417;-76
2023/09/12 01:42:48;;;;;;;6.23;4.80;;;;;;;19.01;100.00;96958.41;5060922;28;20433;-76
2023/09/12 01:45:18;;;;;;;11.93;5.70;;;;;;;19.01;100.00;96957.63;5050076;28;20503;-76
2023/09/12 01:47:47;;;;;;;9.32;5.60;;;;;;;18.98;100.00;96959.03;5057068;28;20402;-77
2023/09/12 01:50:16;;;;;;;9.52;5.90;;;;;;;18.98;100.00;96960.91;5051630;28;20412;-77
2023/09/12 01:52:42;;;;;;;9.43;5.55;;;;;;;18.95;100.00;96962.34;5051901;28;20422;-77
2023/09/12 01:55:10;;;;;;;9.63;6.22;;;;;;;18.94;100.00;96958.09;5061910;28;20439;-77
2023/09/12 01:57:37;;;;;;;8.70;5.38;;;;;;;18.92;100.00;96955.72;5063624;28;20978;-77
2023/09/12 02:00:04;;;;;;;8.32;5.15;;;;;;;18.90;100.00;96957.13;5063546;28;20536;-77
2023/09/12 02:02:32;;;;;;;7.80;5.63;;;;;;;18.86;100.00;96954.31;5063415;28;20417;-77
2023/09/12 02:05:07;;;;;;;7.80;5.30;;;;;;;18.84;100.00;96953.81;5059994;28;20471;-77
2023/09/12 02:07:36;;;;;;;8.02;5.15;;;;;;;18.85;100.00;96952.72;5065072;28;20419;-77
2023/09/12 02:10:04;;;;;;;8.93;5.60;;;;;;;18.84;100.00;96951.13;5059591;28;20389;-76
2023/09/12 02:12:30;;;;;;;10.18;6.13;;;;;;;18.82;100.00;96944.50;5042274;28;20444;-78
2023/09/12 02:14:57;;;;;;;8.15;5.45;;;;;;;18.79;100.00;96937.91;5056498;28;20411;-77
2023/09/12 02:17:23;;;;;;;7.15;5.25;;;;;;;18.77;100.00;96942.78;5052397;28;20409;-76
2023/09/12 02:19:50;;;;;;;10.67;6.07;;;;;;;18.71;100.00;96944.03;5056818;28;20413;-76
2023/09/12 02:22:17;;;;;;;9.35;6.57;;;;;;;18.67;100.00;96945.75;5057406;28;20500;-76
2023/09/12 02:24:43;;;;;;;9.10;5.80;;;;;;;18.66;100.00;96949.53;5057401;28;20497;-76
2023/09/12 02:27:09;;;;;;;11.40;6.65;;;;;;;18.65;100.00;96953.31;5063745;28;20487;-76
2023/09/12 02:29:36;;;;;;;10.15;6.07;;;;;;;18.64;100.00;96949.06;5055565;28;20915;-76
2023/09/12 02:32:03;;;;;;;9.97;6.60;;;;;;;18.64;100.00;96946.41;5063941;28;20889;-77
2023/09/12 02:34:31;;;;;;;8.75;5.53;;;;;;;18.61;100.00;96941.66;5063336;28;20427;-76
2023/09/12 02:36:58;;;;;;;8.63;5.43;;;;;;;18.59;100.00;96941.16;5045875;28;20463;-76
2023/09/12 02:39:24;;;;;;;9.75;5.35;;;;;;;18.58;100.00;96942.25;5063095;28;20431;-76
2023/09/12 02:41:51;;;;;;;9.77;6.18;;;;;;;18.53;100.00;96932.47;5052801;28;20409;-77
2023/09/12 02:44:17;;;;;;;14.93;6.88;;;;;;;18.49;100.00;96931.50;5057201;28;20427;-77
2023/09/12 02:46:43;;;;;;;8.73;5.53;;;;;;;18.48;100.00;96929.94;5064205;28;20436;-77
2023/09/12 02:49:09;;;;;;;11.13;6.68;;;;;;;18.48;100.00;96935.28;5045230;28;20440;-77
2023/09/12 02:51:38;;;;;;;8.70;5.75;;;;;;;18.48;100.00;96931.81;5045441;28;20917;-77
2023/09/12 02:54:06;;;;;;;9.63;5.93;;;;;;;18.45;100.00;96929.75;5062546;28;20802;-77
2023/09/12 02:56:32;;;;;;;9.93;6.07;;;;;;;18.44;100.00;96933.53;5063459;28;20409;-76
2023/09/12 02:58:58;;;;;;;10.52;6.70;;;;;;;18.42;100.00;96928.47;5063040;28;20428;-76
2023/09/12 03:01:27;;;;;;;9.18;6.40;;;;;;;18.40;100.00;96928.03;5063561;28;20451;-76
2023/09/12 03:03:54;;;;;;;8.18;5.50;;;;;;;18.38;100.00;96929.44;5062666;28;20398;-76
2023/09/12 03:06:20;;;;;;;9.50;5.73;;;;;;;18.37;100.00;96938.56;5055605;28;20482;-77
2023/09/12 03:08:47;;;;;;;11.30;6.32;;;;;;;18.34;100.00;96931.16;5059054;28;20462;-77
2023/09/12 03:11:14;;;;;;;8.80;5.97;;;;;;;18.32;100.00;96930.69;5061061;28;20802;-76
2023/09/12 03:13:42;;;;;;;9.25;6.30;;;;;;;18.33;100.00;96933.06;5050935;28;20889;-77
2023/09/12 03:16:10;;;;;;;11.05;6.32;;;;;;;18.30;100.00;96928.31;5055400;28;20836;-77
2023/09/12 03:18:36;;;;;;;9.98;6.38;;;;;;;18.28;100.00;96924.34;5055854;28;20436;-76
2023/09/12 03:21:03;;;;;;;12.45;6.40;;;;;;;18.24;100.00;96932.25;5057676;28;20505;-77
2023/09/12 03:23:29;;;;;;;9.38;5.80;;;;;;;18.24;100.00;96920.72;5056728;28;20413;-77
2023/09/12 03:25:59;;;;;;;7.88;5.57;;;;;;;18.23;100.00;96921.81;5043246;28;20413;-77
2023/09/12 03:28:26;;;;;;;7.95;5.15;;;;;;;18.22;100.00;96922.91;5043839;28;20409;-77
2023/09/12 03:31:02;;;;;;;9.00;5.78;;;;;;;18.22;100.00;96926.38;5062190;28;20408;-77
2023/09/12 03:33:28;;;;;;;7.97;5.90;;;;;;;18.20;100.00;96912.50;5061827;28;20922;-76
2023/09/12 03:35:55;;;;;;;11.10;6.47;;;;;;;18.16;100.00;96912.34;5052644;28;20772;-76
2023/09/12 03:38:21;;;;;;;10.77;6.20;;;;;;;18.16;100.00;96923.06;5061184;28;20530;-76
2023/09/12 03:40:47;;;;;;;10.18;6.03;;;;;;;18.16;100.00;96915.03;5062563;28;20420;-77
2023/09/12 03:43:13;;;;;;;12.30;6.75;;;;;;;18.16;100.00;96916.94;5045798;28;20405;-77
2023/09/12 03:45:41;;;;;;;7.63;5.72;;;;;;;18.15;100.00;96915.34;5064894;28;20424;-77
2023/09/12 03:48:07;;;;;;;9.98;6.18;;;;;;;18.11;100.00;96904.47;5063230;28;20908;-77
2023/09/12 03:50:33;;;;;;;8.63;6.00;;;;;;;18.10;100.00;96916.28;5063645;28;20424;-76
2023/09/12 03:52:59;;;;;;;12.20;6.13;;;;;;;18.10;100.00;96918.16;5064267;28;20405;-76
2023/09/12 03:55:25;;;;;;;10.55;6.63;;;;;;;18.08;100.00;96920.38;5054217;28;20449;-76
2023/09/12 03:57:52;;;;;;;10.45;6.75;;;;;;;18.08;100.00;96921.16;5046701;28;20421;-76
2023/09/12 04:00:18;;;;;;;9.45;6.00;;;;;;;18.08;100.00;96921.16;5061696;28;20458;-77
2023/09/12 04:02:45;;;;;;;8.52;6.10;;;;;;;18.08;100.00;96915.00;5060621;28;20515;-76
2023/09/12 04:05:12;;;;;;;10.00;6.47;;;;;;;18.08;100.00;96923.03;5057855;28;20410;-77
2023/09/12 04:07:38;;;;;;;12.63;6.97;;;;;;;18.05;100.00;96920.97;5051164;28;20427;-76
2023/09/12 04:10:04;;;;;;;10.27;6.50;;;;;;;18.02;100.00;96921.59;5063867;28;20412;-77
2023/09/12 04:12:31;;;;;;;10.15;6.95;;;;;;;18.00;100.00;96919.22;5066764;28;20413;-77
2023/09/12 04:14:57;;;;;;;11.57;6.90;;;;;;;18.00;100.00;96921.13;5063963;28;20410;-77
2023/09/12 04:17:23;;;;;;;16.17;7.57;;;;;;;17.96;100.00;96920.97;5069716;28;20442;-77
2023/09/12 04:19:51;;;;;;;9.82;6.22;;;;;;;17.97;100.00;96924.41;5065554;28;20483;-77
2023/09/12 04:22:17;;;;;;;10.43;6.78;;;;;;;17.95;100.00;96918.59;5067606;28;20501;-77
2023/09/12 04:24:43;;;;;;;9.35;5.88;;;;;;;17.96;100.00;96914.81;5060111;28;20420;-76
2023/09/12 04:27:10;;;;;;;10.13;6.32;;;;;;;17.97;100.00;96924.41;5066203;28;20520;-76
2023/09/12 04:29:36;;;;;;;8.20;5.88;;;;;;;18.01;100.00;96918.13;5059351;28;20410;-76
2023/09/12 04:32:03;;;;;;;7.85;5.68;;;;;;;18.03;100.00;96909.78;5047391;28;20778;-76
2023/09/12 04:34:30;;;;;;;8.48;5.57;;;;;;;18.05;100.00;96915.63;5058716;28;20437;-76
2023/09/12 04:36:58;;;;;;;8.70;6.05;;;;;;;18.04;100.00;96904.09;5060691;28;20895;-76
2023/09/12 04:39:24;;;;;;;7.40;5.45;;;;;;;18.05;100.00;96902.22;5060371;28;20432;-76
2023/09/12 04:41:50;;;;;;;5.75;4.88;;;;;;;18.05;100.00;96900.34;5051721;28;20423;-76
2023/09/12 04:44:17;;;;;;;10.73;6.40;;;;;;;18.05;100.00;96900.34;5051340;28;20417;-76
2023/09/12 04:46:43;;;;;;;9.32;6.25;;;;;;;18.06;100.00;96898.44;5058652;28;20412;-76
2023/09/12 04:49:09;;;;;;;10.73;6.22;;;;;;;18.05;100.00;96905.69;5059477;28;20481;-76
2023/09/12 04:51:35;;;;;;;8.77;5.88;;;;;;;18.06;100.00;96909.94;5058528;28;20408;-76
2023/09/12 04:54:03;;;;;;;9.18;6.85;;;;;;;18.05;100.00;96910.25;5059781;28;20425;-77
2023/09/12 04:56:29;;;;;;;8.10;6.15;;;;;;;18.06;100.00;96917.19;5058283;28;20396;-77
2023/09/12 04:58:56;;;;;;;8.32;6.10;;;;;;;18.05;100.00;96913.72;5058636;28;20405;-77
2023/09/12 05:01:22;;;;;;;13.00;6.88;;;;;;;18.05;100.00;96913.72;5058057;28;20814;-77
2023/09/12 05:03:48;;;;;;;9.98;6.93;;;;;;;18.04;100.00;96916.75;5065391;28;20400;-76
2023/09/12 05:06:14;;;;;;;10.20;7.20;;;;;;;18.04;100.00;96917.50;5064846;28;20433;-76
2023/09/12 05:08:40;;;;;;;13.75;7.22;;;;;;;18.05;100.00;96927.13;5058034;28;20429;-77
2023/09/12 05:11:09;;;;;;;11.27;6.75;;;;;;;18.07;100.00;96924.13;5066123;28;20405;-75
2023/09/12 05:13:35;;;;;;;14.40;7.47;;;;;;;18.06;100.00;96919.88;5058089;28;20402;-76
2023/09/12 05:16:02;;;;;;;10.77;7.50;;;;;;;18.10;100.00;96918.16;5054040;28;20431;-76
2023/09/12 05:18:28;;;;;;;11.40;7.13;;;;;;;18.12;100.00;96916.75;5062597;28;20394;-76
2023/09/12 05:20:54;;;;;;;11.15;7.05;;;;;;;18.17;100.00;96911.25;5060980;28;20510;-76
2023/09/12 05:23:20;;;;;;;11.90;7.18;;;;;;;18.22;100.00;96914.88;5069773;28;20508;-75
2023/09/12 05:25:46;;;;;;;9.27;6.73;;;;;;;18.26;100.00;96910.50;5072785;28;20415;-75
2023/09/12 05:28:15;;;;;;;9.13;6.00;;;;;;;18.30;100.00;96920.25;5059917;28;20409;-76
2023/09/12 05:30:42;;;;;;;10.07;6.25;;;;;;;18.36;100.00;96920.91;5057557;28;20408;-76
2023/09/12 05:33:08;;;;;;;11.20;6.33;;;;;;;18.39;100.00;96925.66;5064054;28;20789;-76
2023/09/12 05:35:34;;;;;;;10.57;7.13;;;;;;;18.44;100.00;96928.16;5057965;28;20899;-76
2023/09/12 05:38:01;;;;;;;10.65;7.20;;;;;;;18.48;100.00;96932.63;5037424;28;20420;-77
2023/09/12 05:40:27;;;;;;;11.20;6.90;;;;;;;18.53;100.00;96929.78;5055881;28;20506;-76
2023/09/12 05:42:53;;;;;;;9.20;6.70;;;;;;;18.60;100.00;96931.22;5056875;28;20410;-76
2023/09/12 05:45:21;;;;;;;8.80;6.03;;;;;;;18.67;100.00;96926.97;5057362;28;20771;-76
2023/09/12 05:47:48;;;;;;;8.52;6.15;;;;;;;18.76;100.00;96933.16;5056767;28;20409;-76
2023/09/12 05:50:14;;;;;;;9.07;6.05;;;;;;;18.86;100.00;96921.34;5056845;28;20393;-76
2023/09/12 05:52:42;;;;;;;11.10;6.22;;;;;;;18.97;100.00;96927.16;5049259;28;20450;-75
2023/09/12 05:55:09;;;;;;;8.70;5.57;;;;;;;19.07;100.00;96933.00;5056630;28;20909;-77
2023/09/12 05:57:35;;;;;;;9.70;5.90;;;;;;;19.17;100.00;96931.91;5058172;28;20504;-75
2023/09/12 06:00:04;;;;;;;8.73;6.43;;;;;;;19.25;100.00;96926.50;5055156;28;20425;-77
2023/09/12 06:02:33;;;;;;;8.73;6.68;;;;;;;19.35;100.00;96930.75;5056107;28;20523;-77
2023/09/12 06:04:59;;;;;;;15.50;7.32;;;;;;;19.47;100.00;96928.22;5054604;28;20405;-76
2023/09/12 06:07:25;;;;;;;13.07;8.70;;;;;;;19.63;100.00;96933.88;5053445;28;20954;-76
2023/09/12 06:09:52;;;;;;;10.80;7.60;;;;;;;19.74;100.00;96937.03;5053673;28;20406;-76
2023/09/12 06:12:18;;;;;;;10.35;7.38;;;;;;;19.84;100.00;96936.69;5052880;28;20397;-76
2023/09/12 06:14:44;;;;;;;9.75;6.80;;;;;;;19.93;100.00;96935.53;5044709;28;20459;-76
2023/09/12 06:17:10;;;;;;;14.23;7.78;;;;;;;20.00;100.00;96943.88;5057153;28;20883;-75
2023/09/12 06:19:39;;;;;;;10.43;7.32;;;;;;;20.09;100.00;96946.53;5058277;28;20401;-75
2023/09/12 06:22:05;;;;;;;7.88;6.47;;;;;;;20.16;100.00;96948.72;5054076;28;20818;-75
2023/09/12 06:24:31;;;;;;;8.87;6.83;;;;;;;20.23;100.00;96943.59;5046422;28;20424;-75
2023/09/12 06:26:58;;;;;;;8.57;6.65;;;;;;;20.28;100.00;96946.13;5054492;28;20458;-75
2023/09/12 06:29:24;;;;;;;9.65;7.25;;;;;;;20.32;100.00;96947.84;5059269;28;20440;-76
2023/09/12 06:31:50;;;;;;;10.88;7.35;;;;;;;20.37;100.00;96955.75;5056617;28;20485;-78
2023/09/12 06:34:16;;;;;;;8.70;6.90;;;;;;;20.42;100.00;96960.94;5061546;28;20498;-78
2023/09/12 06:36:45;;;;;;;8.52;6.43;;;;;;;20.46;100.00;96966.47;5067272;28;20576;-78
2023/09/12 06:39:11;;;;;;;9.05;6.85;;;;;;;20.48;100.00;96961.56;5060000;28;20440;-77
2023/09/12 06:41:37;;;;;;;8.68;6.65;;;;;;;20.51;100.00;96960.13;5054875;28;20980;-77
2023/09/12 06:44:05;;;;;;;13.77;7.63;;;;;;;20.53;100.00;96963.25;5052913;28;20397;-77
2023/09/12 06:46:35;;;;;;;15.07;8.48;;;;;;;20.55;100.00;96961.03;5052137;28;20401;-77
2023/09/12 06:49:02;;;;;;;13.77;8.23;;;;;;;20.57;100.00;96967.69;5061584;28;20410;-78
2023/09/12 06:51:29;;;;;;;11.63;8.38;;;;;;;20.62;100.00;96972.84;5043459;28;20488;-78
2023/09/12 06:53:56;;;;;;;12.23;7.70;;;;;;;20.69;100.00;96972.34;5060752;28;20445;-79
2023/09/12 06:56:22;;;;;;;11.70;7.63;;;;;;;20.75;100.00;96973.75;5076886;28;20404;-77
2023/09/12 06:58:49;;;;;;;9.55;6.78;;;;;;;20.80;100.00;96979.72;5074747;28;20418;-77
2023/09/12 07:01:15;;;;;;;9.20;7.05;;;;;;;20.84;100.00;96977.94;5070269;28;20428;-76
2023/09/12 07:03:41;;;;;;;8.63;6.65;;;;;;;20.90;100.00;96983.16;5059935;28;20393;-77
2023/09/12 07:06:08;;;;;;;10.23;6.72;;;;;;;20.95;100.00;96985.63;5070582;28;20486;-78
2023/09/12 07:08:35;;;;;;;9.00;6.60;;;;;;;20.99;100.00;96987.31;5077082;28;20396;-78
2023/09/12 07:11:05;;;;;;;9.83;6.53;;;;;;;21.08;100.00;96995.34;5066869;28;20420;-76
2023/09/12 07:13:32;;;;;;;9.40;6.43;;;;;;;21.19;100.00;96985.81;5054675;28;20458;-77
2023/09/12 07:15:59;;;;;;;10.77;6.47;;;;;;;21.28;100.00;96991.88;5060349;28;20401;-77
2023/09/12 07:18:25;;;;;;;10.55;7.05;;;;;;;21.33;100.00;96996.28;5047213;28;20447;-78
2023/09/12 07:20:57;;;;;;;8.68;6.70;;;;;;;21.36;100.00;97001.78;5060600;28;20428;-77
2023/09/12 07:23:24;;;;;;;8.45;5.80;;;;;;;21.35;100.00;96994.06;5061735;28;20413;-77
2023/09/12 07:25:50;;;;;;;8.88;6.55;;;;;;;21.35;100.00;97004.84;5059992;28;20992;-76
2023/09/12 07:28:19;;;;;;;10.15;6.95;;;;;;;21.39;100.00;97000.34;5067134;28;20473;-78
2023/09/12 07:30:46;;;;;;;9.65;6.55;;;;;;;21.49;100.00;96999.97;5066062;28;20397;-77
2023/09/12 07:33:12;;;;;;;10.00;6.75;;;;;;;21.62;100.00;97004.28;5070723;28;20426;-78
2023/09/12 07:35:39;;;;;;;9.82;6.53;;;;;;;21.76;100.00;97001.28;5060287;28;20881;-77
2023/09/12 07:38:05;;;;;;;10.90;7.03;;;;;;;21.88;100.00;97004.00;5057937;28;20410;-77
2023/09/12 07:40:32;;;;;;;9.00;7.00;;;;;;;21.97;100.00;97002.03;5054413;28;20413;-77
2023/09/12 07:42:58;;;;;;;9.07;6.17;;;;;;;22.12;100.00;97001.38;5058989;28;20452;-78
2023/09/12 07:45:25;;;;;;;9.48;6.88;;;;;;;22.32;100.00;97003.22;5050039;28;20718;-77
2023/09/12 07:47:52;;;;;;;8.82;6.30;;;;;;;22.49;100.00;97001.41;5068616;28;20425;-77
2023/09/12 07:50:18;;;;;;;10.68;6.30;;;;;;;22.63;100.00;96997.25;5062631;28;20409;-77
2023/09/12 07:52:44;;;;;;;16.98;8.80;;;;;;;22.67;100.00;97000.06;5061075;28;20455;-78
2023/09/12 07:55:11;;;;;;;13.52;8.45;;;;;;;22.77;100.00;96997.75;5057420;28;20412;-78
2023/09/12 07:57:37;;;;;;;10.63;7.70;;;;;;;22.88;100.00;96995.34;5059138;28;20408;-77
2023/09/12 08:00:10;;;;;;;12.97;7.90;;;;;;;22.95;100.00;96995.56;5060470;28;20409;-78
2023/09/12 08:02:38;;;;;;;10.40;7.72;;;;;;;22.99;100.00;96998.38;5058577;28;20413;-77
2023/09/12 08:05:05;;;;;;;12.00;8.30;;;;;;;22.98;100.00;97005.69;5054219;28;20404;-77
2023/09/12 08:07:31;;;;;;;12.15;8.00;;;;;;;23.02;100.00;96998.47;5053999;28;20451;-77
2023/09/12 08:09:59;;;;;;;10.02;6.95;;;;;;;23.16;100.00;97000.81;5057940;28;20409;-77
2023/09/12 08:12:26;;;;;;;6.90;5.55;;;;;;;23.28;100.00;97010.81;5057546;28;20407;-78
2023/09/12 08:14:53;;;;;;;8.25;6.30;;;;;;;23.33;100.00;97010.56;5061174;28;20439;-78
2023/09/12 08:17:20;;;;;;;7.25;6.13;;;;;;;23.35;100.00;97009.09;5062031;28;20406;-77
2023/09/12 08:19:47;;;;;;;7.72;6.00;;;;;;;23.37;100.00;97017.66;5059725;28;20389;-77
2023/09/12 08:22:13;;;;;;;8.73;6.20;;;;;;;23.37;100.00;97022.25;5060066;28;20966;-77
2023/09/12 08:24:40;;;;;;;8.90;6.07;;;;;;;23.36;100.00;97017.97;5059978;28;20401;-77
2023/09/12 08:27:06;;;;;;;8.25;5.72;;;;;;;23.36;100.00;97009.88;5061063;28;20463;-76
2023/09/12 08:29:33;;;;;;;8.15;5.20;;;;;;;23.35;100.00;97009.09;5061763;28;20432;-76
2023/09/12 08:32:00;;;;;;;7.60;5.45;;;;;;;23.33;100.00;97014.03;5060346;28;20408;-76
2023/09/12 08:34:26;;;;;;;9.15;5.80;;;;;;;23.29;100.00;97007.75;5057031;28;20463;-78
2023/09/12 08:36:54;;;;;;;7.60;5.57;;;;;;;23.31;100.00;97010.09;5061704;28;20433;-78
2023/09/12 08:39:24;;;;;;;7.85;5.55;;;;;;;23.40;100.00;97014.25;5058085;28;20401;-78
2023/09/12 08:41:50;;;;;;;8.10;5.80;;;;;;;23.61;100.00;97005.97;5063493;28;20504;-77
2023/09/12 08:44:17;;;;;;;9.98;6.00;;;;;;;23.80;100.00;97006.13;5058935;28;20489;-79
2023/09/12 08:46:45;;;;;;;9.57;6.10;;;;;;;23.95;100.00;97007.28;5060812;28;20639;-78
2023/09/12 08:49:11;;;;;;;8.02;5.50;;;;;;;24.06;100.00;97002.13;5060044;28;20406;-77
2023/09/12 08:51:39;;;;;;;8.50;5.80;;;;;;;24.18;100.00;97008.25;5063062;28;20433;-77
2023/09/12 08:54:07;;;;;;;9.07;5.65;;;;;;;24.30;100.00;97007.41;5054875;28;20550;-77
2023/09/12 08:56:36;;;;;;;8.63;5.95;;;;;;;24.46;100.00;97008.19;5052359;28;20415;-77
2023/09/12 08:59:05;;;;;;;9.10;6.15;;;;;;;24.55;100.00;97010.72;5055857;28;20389;-78
2023/09/12 09:01:32;;;;;;;12.48;7.30;;;;;;;24.62;100.00;97011.69;5055670;28;20474;-76
2023/09/12 09:03:58;;;;;;;10.27;6.07;;;;;;;24.75;100.00;97006.94;5058465;28;20517;-77
2023/09/12 09:06:26;;;;;;;8.93;5.97;;;;;;;24.87;100.00;97001.44;5058768;28;20463;-77
2023/09/12 09:08:53;;;;;;;7.93;5.82;;;;;;;25.01;100.00;97004.50;5055681;28;20409;-76
2023/09/12 09:11:21;;;;;;;7.80;6.10;;;;;;;25.17;100.00;96998.25;5055150;28;20397;-77
2023/09/12 09:13:48;;;;;;;10.20;6.00;;;;;;;25.29;100.00;97009.72;5057006;28;20398;-77
2023/09/12 09:16:15;;;;;;;8.15;5.82;;;;;;;25.44;100.00;97011.56;5054241;28;20900;-77
2023/09/12 09:18:52;;;;;;;12.27;6.23;;;;;;;25.59;100.00;96998.34;5060549;28;20401;-78
2023/09/12 09:21:26;;;;;;;8.13;6.05;;;;;;;25.73;100.00;97004.03;5048294;28;20430;-78
2023/09/12 09:23:53;;;;;;;7.75;5.80;;;;;;;25.89;100.00;97002.00;5055520;28;20415;-78
2023/09/12 09:26:21;;;;;;;8.40;5.78;;;;;;;26.03;100.00;96993.34;5053407;28;20416;-78
2023/09/12 09:29:06;;;;;;;7.47;5.63;;;;;;;26.22;100.00;96987.88;5059973;28;20424;-77
2023/09/12 09:31:34;;;;;;;8.27;5.72;;;;;;;26.47;100.00;96980.94;5063489;28;20483;-77
2023/09/12 09:34:01;;;;;;;9.70;6.25;;;;;;;26.76;100.00;96979.47;5065076;28;20409;-77
2023/09/12 09:36:27;;;;;;;7.60;5.93;;;;;;;27.08;100.00;96976.41;5065109;28;20416;-78
2023/09/12 09:38:56;;;;;;;9.95;6.68;;;;;;;27.34;100.00;96971.72;5064401;28;20401;-77
2023/09/12 09:41:24;;;;;;;12.38;6.80;;;;;;;27.60;100.00;96980.97;5038378;28;20425;-77
2023/09/12 09:43:51;;;;;;;9.70;6.45;;;;;;;27.86;100.00;96978.16;5052599;28;20428;-77
2023/09/12 09:46:18;;;;;;;9.00;6.78;;;;;;;28.04;100.00;96979.09;5059453;28;20420;-77
2023/09/12 09:48:50;;;;;;;8.65;6.35;;;;;;;28.19;100.00;96984.72;5033740;28;20509;-77
2023/09/12 09:51:16;;;;;;;7.53;5.88;;;;;;;28.28;100.00;96982.44;5058651;28;20409;-78
2023/09/12 09:53:43;;;;;;;10.20;6.70;;;;;;;28.33;100.00;96971.22;5051756;28;20409;-78
2023/09/12 09:56:11;;;;;;;12.60;7.68;;;;;;;28.41;100.00;96981.78;5045700;28;20406;-78
2023/09/12 09:58:45;;;;;;;15.02;7.82;;;;;;;28.51;100.00;96963.94;5041492;28;20399;-77
2023/09/12 10:01:13;;;;;;;9.30;6.30;;;;;;;28.68;100.00;96966.03;5043914;28;20495;-77
2023/09/12 10:03:41;;;;;;;7.38;5.70;;;;;;;28.83;100.00;96959.53;5052018;28;20751;-77
2023/09/12 10:06:09;;;;;;;12.48;6.70;;;;;;;28.92;100.00;96958.41;5033382;28;20395;-77
2023/09/12 10:08:37;;;;;;;8.23;6.15;;;;;;;29.01;100.00;96959.66;5041253;28;20733;-76
2023/09/12 10:11:04;;;;;;;7.68;6.20;;;;;;;29.05;100.00;96957.69;5036127;28;20386;-78
2023/09/12 10:13:33;;;;;;;7.25;5.45;;;;;;;29.06;100.00;96956.53;5051851;28;20432;-76
2023/09/12 10:16:04;;;;;;;6.72;5.72;;;;;;;29.04;100.00;96953.41;5047984;28;20401;-76
2023/09/12 10:18:38;;;;;;;7.20;5.67;;;;;;;29.10;100.00;96953.81;5021918;28;20407;-76
2023/09/12 10:21:11;;;;;;;6.60;5.10;;;;;;;29.17;100.00;96951.16;5034748;28;20429;-76
2023/09/12 10:23:41;;;;;;;7.20;5.30;;;;;;;29.22;100.00;96957.00;5042674;28;20401;-77
2023/09/12 10:26:10;;;;;;;6.32;5.10;;;;;;;29.23;100.00;96961.31;5041423;28;20403;-77
2023/09/12 10:28:39;;;;;;;6.90;5.13;;;;;;;29.23;100.00;96955.84;5039248;28;20407;-77
2023/09/12 10:31:08;;;;;;;7.15;5.15;;;;;;;29.22;99.80;96956.22;5035683;28;20400;-76
2023/09/12 10:33:35;;;;;;;6.82;5.22;;;;;;;29.21;99.71;96952.72;5042551;28;20945;-77
2023/09/12 10:36:05;;;;;;;6.75;5.25;;;;;;;29.22;99.45;96956.22;5052639;28;20747;-76
2023/09/12 10:38:36;;;;;;;6.82;5.38;;;;;;;29.19;99.43;96957.78;5042985;28;20399;-75
2023/09/12 10:41:03;;;;;;;5.75;5.15;;;;;;;29.19;99.15;96957.00;5042567;28;20421;-76
2023/09/12 10:43:33;;;;;;;6.80;5.38;;;;;;;29.16;99.02;96955.03;5039183;28;20402;-78
2023/09/12 10:46:03;;;;;;;8.00;5.15;;;;;;;29.18;99.05;96950.75;5040546;28;20459;-77
2023/09/12 10:48:32;;;;;;;7.60;5.47;;;;;;;29.22;98.79;96953.50;5049839;28;20401;-77
2023/09/12 10:51:00;;;;;;;8.02;5.32;;;;;;;29.27;98.27;96958.56;5052778;28;20409;-77
2023/09/12 10:53:30;;;;;;;8.02;5.28;;;;;;;29.31;98.07;96948.50;5033971;28;20417;-76
2023/09/12 10:56:13;;;;;;;7.15;5.38;;;;;;;29.35;97.93;96956.69;5053555;28;20424;-76
2023/09/12 10:59:11;;;;;;;7.53;5.75;;;;;;;29.40;97.58;96953.59;5052359;28;20397;-77
2023/09/12 11:01:38;;;;;;;5.97;5.03;;;;;;;29.48;97.45;96955.19;5051478;28;20462;-77
2023/09/12 11:04:34;;;;;;;8.35;5.43;;;;;;;29.57;97.57;96950.16;5054111;28;20502;-77
2023/09/12 11:07:00;;;;;;;7.18;5.70;;;;;;;29.64;97.37;96950.94;5053404;28;20770;-77
2023/09/12 11:09:27;;;;;;;10.13;5.88;;;;;;;29.71;96.03;96947.44;5051864;28;20417;-77
2023/09/12 11:11:57;;;;;;;7.55;5.20;;;;;;;29.81;95.66;96935.00;5053495;28;20440;-77
2023/09/12 11:14:24;;;;;;;7.68;5.80;;;;;;;29.92;95.51;96944.00;5051845;28;20424;-77
2023/09/12 11:17:23;;;;;;;7.82;5.75;;;;;;;30.04;94.81;96937.41;5051429;28;20461;-78
2023/09/12 11:19:52;;;;;;;7.93;6.15;;;;;;;30.13;94.18;96940.53;5047508;28;20417;-78
2023/09/12 11:22:26;;;;;;;7.80;5.88;;;;;;;30.22;93.53;96944.41;5053919;28;20504;-78
2023/09/12 11:24:55;;;;;;;9.63;5.80;;;;;;;30.33;92.75;96937.00;5054847;28;21031;-76